PWSweather.com
Personal Weather Stations
Station Observations
KCOBOOMER
Belmont, Pueblo, CO 81001

BelmontPueblo, CO 81001

Lat: 38.2977486, Lon: -104.5754318

Elevation: 4795

Station Type: Davis Vantage Pro 2

http://www.puebloweather.net

Latest ConditionsUpdated 6:40:05 AM MST Wednesday, Nov 26, 2014
Currently Today's Max Today's Min Today's Average
Temperature 26.8°F-2.9°C 36.4°F2.4°C 26.8°F-2.9°C 30.3°F-0.9°C
Dew Point 23.2°F-4.9°C 26.9°F-2.8°C 23.1°F-4.9°C 24.8°F-4.0°C
Winds Calm Calm 16.0 mph NNW25.7 kmh NNW - 1.1 mph 1.8 kmh
Wind Gusts -- -- - -
Humidity 86% 86% 63% 80%
Pressure 30.29 in1025.7 mb 30.30 in1026.1 mb 30.16 in1021.3 mb -
Hour Temp Dew Point Humidity Winds Wind Gusts Pressure Precip Precip Rate Daily Precip Total
06:40 AM 26.8°F-2.9°C 23.2°F-4.9°C 86% Calm Calm -- 30.29 in1025.7 mb 0.00 in0.0 mm 0.00 in/hr0.0 mm/hr 0.00 in0.0 mm
06:35 AM 26.8°F-2.9°C 23.2°F-4.9°C 86% Calm Calm -- 30.29 in1025.7 mb 0.00 in0.0 mm 0.00 in/hr0.0 mm/hr 0.00 in0.0 mm
06:30 AM 26.9°F-2.8°C 23.3°F-4.8°C 86% Calm Calm -- 30.29 in1025.7 mb 0.00 in0.0 mm 0.00 in/hr0.0 mm/hr 0.00 in0.0 mm
06:25 AM 26.9°F-2.8°C 23.3°F-4.8°C 86% Calm Calm -- 30.30 in1026.1 mb 0.00 in0.0 mm 0.00 in/hr0.0 mm/hr 0.00 in0.0 mm
06:20 AM 26.9°F-2.8°C 23.3°F-4.8°C 86% Calm Calm -- 30.29 in1025.7 mb 0.00 in0.0 mm 0.00 in/hr0.0 mm/hr 0.00 in0.0 mm
06:15 AM 26.9°F-2.8°C 23.3°F-4.8°C 86% Calm Calm -- 30.29 in1025.7 mb 0.00 in0.0 mm 0.00 in/hr0.0 mm/hr 0.00 in0.0 mm
06:10 AM 27.0°F-2.8°C 23.1°F-4.9°C 85% Calm Calm -- 30.29 in1025.7 mb 0.00 in0.0 mm 0.00 in/hr0.0 mm/hr 0.00 in0.0 mm
06:05 AM 27.1°F-2.7°C 23.2°F-4.9°C 85% Calm Calm -- 30.29 in1025.7 mb 0.00 in0.0 mm 0.00 in/hr0.0 mm/hr 0.00 in0.0 mm
06:00 AM 27.2°F-2.7°C 23.3°F-4.8°C 85% Calm Calm -- 30.28 in1025.4 mb 0.00 in0.0 mm 0.00 in/hr0.0 mm/hr 0.00 in0.0 mm
05:55 AM 27.3°F-2.6°C 23.4°F-4.8°C 85% Calm Calm -- 30.28 in1025.4 mb 0.00 in0.0 mm 0.00 in/hr0.0 mm/hr 0.00 in0.0 mm
05:50 AM 27.4°F-2.6°C 23.5°F-4.7°C 85% Calm Calm -- 30.28 in1025.4 mb 0.00 in0.0 mm 0.00 in/hr0.0 mm/hr 0.00 in0.0 mm
05:45 AM 27.4°F-2.6°C 23.5°F-4.7°C 85% Calm Calm -- 30.28 in1025.4 mb 0.00 in0.0 mm 0.00 in/hr0.0 mm/hr 0.00 in0.0 mm
05:40 AM 27.4°F-2.6°C 23.5°F-4.7°C 85% Calm Calm -- 30.28 in1025.4 mb 0.00 in0.0 mm 0.00 in/hr0.0 mm/hr 0.00 in0.0 mm
05:35 AM 27.6°F-2.4°C 23.7°F-4.6°C 85% Calm Calm -- 30.28 in1025.4 mb 0.00 in0.0 mm 0.00 in/hr0.0 mm/hr 0.00 in0.0 mm
05:30 AM 27.7°F-2.4°C 23.8°F-4.6°C 85% Calm Calm -- 30.28 in1025.4 mb 0.00 in0.0 mm 0.00 in/hr0.0 mm/hr 0.00 in0.0 mm
05:25 AM 27.7°F-2.4°C 23.8°F-4.6°C 85% Calm Calm -- 30.28 in1025.4 mb 0.00 in0.0 mm 0.00 in/hr0.0 mm/hr 0.00 in0.0 mm
05:20 AM 27.8°F-2.3°C 23.9°F-4.5°C 85% Calm Calm -- 30.28 in1025.4 mb 0.00 in0.0 mm 0.00 in/hr0.0 mm/hr 0.00 in0.0 mm
05:15 AM 27.8°F-2.3°C 23.9°F-4.5°C 85% Calm Calm -- 30.28 in1025.4 mb 0.00 in0.0 mm 0.00 in/hr0.0 mm/hr 0.00 in0.0 mm
05:10 AM 27.9°F-2.3°C 24.0°F-4.4°C 85% Calm Calm -- 30.28 in1025.4 mb 0.00 in0.0 mm 0.00 in/hr0.0 mm/hr 0.00 in0.0 mm
05:05 AM 27.9°F-2.3°C 24.0°F-4.4°C 85% Calm Calm -- 30.27 in1025.1 mb 0.00 in0.0 mm 0.00 in/hr0.0 mm/hr 0.00 in0.0 mm
05:00 AM 27.9°F-2.3°C 24.3°F-4.3°C 86% Calm Calm -- 30.27 in1025.1 mb 0.00 in0.0 mm 0.00 in/hr0.0 mm/hr 0.00 in0.0 mm
04:55 AM 27.8°F-2.3°C 23.9°F-4.5°C 85% Calm Calm -- 30.26 in1024.7 mb 0.00 in0.0 mm 0.00 in/hr0.0 mm/hr 0.00 in0.0 mm
04:50 AM 28.0°F-2.2°C 24.1°F-4.4°C 85% Calm Calm -- 30.27 in1025.1 mb 0.00 in0.0 mm 0.00 in/hr0.0 mm/hr 0.00 in0.0 mm
04:45 AM 28.0°F-2.2°C 23.8°F-4.6°C 84% Calm Calm -- 30.26 in1024.7 mb 0.00 in0.0 mm 0.00 in/hr0.0 mm/hr 0.00 in0.0 mm
04:40 AM 28.0°F-2.2°C 23.8°F-4.6°C 84% Calm Calm -- 30.27 in1025.1 mb 0.00 in0.0 mm 0.00 in/hr0.0 mm/hr 0.00 in0.0 mm
04:35 AM 28.0°F-2.2°C 23.8°F-4.6°C 84% Calm Calm -- 30.26 in1024.7 mb 0.00 in0.0 mm 0.00 in/hr0.0 mm/hr 0.00 in0.0 mm
04:30 AM 28.1°F-2.2°C 23.9°F-4.5°C 84% Calm Calm -- 30.26 in1024.7 mb 0.00 in0.0 mm 0.00 in/hr0.0 mm/hr 0.00 in0.0 mm
04:25 AM 28.2°F-2.1°C 24.0°F-4.4°C 84% Calm Calm -- 30.26 in1024.7 mb 0.00 in0.0 mm 0.00 in/hr0.0 mm/hr 0.00 in0.0 mm
04:20 AM 28.3°F-2.1°C 24.1°F-4.4°C 84% Calm Calm -- 30.26 in1024.7 mb 0.00 in0.0 mm 0.00 in/hr0.0 mm/hr 0.00 in0.0 mm
04:15 AM 28.3°F-2.1°C 23.8°F-4.6°C 83% Calm Calm -- 30.26 in1024.7 mb 0.00 in0.0 mm 0.00 in/hr0.0 mm/hr 0.00 in0.0 mm
04:10 AM 28.4°F-2.0°C 23.9°F-4.5°C 83% Calm Calm -- 30.25 in1024.4 mb 0.00 in0.0 mm 0.00 in/hr0.0 mm/hr 0.00 in0.0 mm
04:05 AM 28.5°F-1.9°C 24.0°F-4.4°C 83% Calm Calm -- 30.25 in1024.4 mb 0.00 in0.0 mm 0.00 in/hr0.0 mm/hr 0.00 in0.0 mm
04:00 AM 28.7°F-1.8°C 24.2°F-4.3°C 83% Calm Calm -- 30.25 in1024.4 mb 0.00 in0.0 mm 0.00 in/hr0.0 mm/hr 0.00 in0.0 mm
03:55 AM 28.9°F-1.7°C 24.4°F-4.2°C 83% Calm Calm -- 30.25 in1024.4 mb 0.00 in0.0 mm 0.00 in/hr0.0 mm/hr 0.00 in0.0 mm
03:50 AM 29.1°F-1.6°C 24.3°F-4.3°C 82% Calm Calm -- 30.24 in1024.0 mb 0.00 in0.0 mm 0.00 in/hr0.0 mm/hr 0.00 in0.0 mm
03:45 AM 29.2°F-1.6°C 24.4°F-4.2°C 82% Calm Calm -- 30.24 in1024.0 mb 0.00 in0.0 mm 0.00 in/hr0.0 mm/hr 0.00 in0.0 mm
03:40 AM 29.4°F-1.4°C 24.6°F-4.1°C 82% Calm Calm -- 30.23 in1023.7 mb 0.00 in0.0 mm 0.00 in/hr0.0 mm/hr 0.00 in0.0 mm
03:35 AM 29.7°F-1.3°C 24.9°F-3.9°C 82% Calm Calm -- 30.23 in1023.7 mb 0.00 in0.0 mm 0.00 in/hr0.0 mm/hr 0.00 in0.0 mm
03:30 AM 29.7°F-1.3°C 24.9°F-3.9°C 82% Calm Calm -- 30.24 in1024.0 mb 0.00 in0.0 mm 0.00 in/hr0.0 mm/hr 0.00 in0.0 mm
03:25 AM 29.9°F-1.2°C 25.1°F-3.8°C 82% Calm Calm -- 30.24 in1024.0 mb 0.00 in0.0 mm 0.00 in/hr0.0 mm/hr 0.00 in0.0 mm
03:20 AM 30.0°F-1.1°C 24.9°F-3.9°C 81% Calm Calm -- 30.24 in1024.0 mb 0.00 in0.0 mm 0.00 in/hr0.0 mm/hr 0.00 in0.0 mm
03:15 AM 30.1°F-1.1°C 25.3°F-3.7°C 82% Calm Calm -- 30.25 in1024.4 mb 0.00 in0.0 mm 0.00 in/hr0.0 mm/hr 0.00 in0.0 mm
03:10 AM 30.2°F-1.0°C 25.1°F-3.8°C 81% Calm Calm -- 30.24 in1024.0 mb 0.00 in0.0 mm 0.00 in/hr0.0 mm/hr 0.00 in0.0 mm
03:05 AM 30.3°F-0.9°C 25.5°F-3.6°C 82% Calm Calm -- 30.24 in1024.0 mb 0.00 in0.0 mm 0.00 in/hr0.0 mm/hr 0.00 in0.0 mm
03:00 AM 30.4°F-0.9°C 25.6°F-3.6°C 82% Calm Calm -- 30.24 in1024.0 mb 0.00 in0.0 mm 0.00 in/hr0.0 mm/hr 0.00 in0.0 mm
02:55 AM 30.5°F-0.8°C 25.4°F-3.7°C 81% Calm Calm -- 30.24 in1024.0 mb 0.00 in0.0 mm 0.00 in/hr0.0 mm/hr 0.00 in0.0 mm
02:50 AM 30.7°F-0.7°C 25.3°F-3.7°C 80% Calm Calm -- 30.24 in1024.0 mb 0.00 in0.0 mm 0.00 in/hr0.0 mm/hr 0.00 in0.0 mm
02:45 AM 30.8°F-0.7°C 25.4°F-3.7°C 80% Calm Calm -- 30.24 in1024.0 mb 0.00 in0.0 mm 0.00 in/hr0.0 mm/hr 0.00 in0.0 mm
02:40 AM 31.0°F-0.6°C 25.6°F-3.6°C 80% Calm Calm -- 30.24 in1024.0 mb 0.00 in0.0 mm 0.00 in/hr0.0 mm/hr 0.00 in0.0 mm
02:35 AM 31.1°F-0.5°C 25.7°F-3.5°C 80% Calm Calm -- 30.23 in1023.7 mb 0.00 in0.0 mm 0.00 in/hr0.0 mm/hr 0.00 in0.0 mm
02:30 AM 31.2°F-0.4°C 25.8°F-3.4°C 80% Calm Calm -- 30.23 in1023.7 mb 0.00 in0.0 mm 0.00 in/hr0.0 mm/hr 0.00 in0.0 mm
02:25 AM 31.2°F-0.4°C 25.8°F-3.4°C 80% 2.0 mph SSE3.2 kmh SSE -- 30.22 in1023.4 mb 0.00 in0.0 mm 0.00 in/hr0.0 mm/hr 0.00 in0.0 mm
02:20 AM 31.4°F-0.3°C 26.0°F-3.3°C 80% Calm Calm -- 30.23 in1023.7 mb 0.00 in0.0 mm 0.00 in/hr0.0 mm/hr 0.00 in0.0 mm
02:15 AM 31.5°F-0.3°C 26.1°F-3.3°C 80% 1.0 mph SSE1.6 kmh SSE -- 30.23 in1023.7 mb 0.00 in0.0 mm 0.00 in/hr0.0 mm/hr 0.00 in0.0 mm
02:10 AM 31.5°F-0.3°C 26.1°F-3.3°C 80% Calm Calm -- 30.23 in1023.7 mb 0.00 in0.0 mm 0.00 in/hr0.0 mm/hr 0.00 in0.0 mm
02:05 AM 31.5°F-0.3°C 26.1°F-3.3°C 80% 2.0 mph SSE3.2 kmh SSE -- 30.22 in1023.4 mb 0.00 in0.0 mm 0.00 in/hr0.0 mm/hr 0.00 in0.0 mm
02:00 AM 31.5°F-0.3°C 25.8°F-3.4°C 79% Calm Calm -- 30.22 in1023.4 mb 0.00 in0.0 mm 0.00 in/hr0.0 mm/hr 0.00 in0.0 mm
01:55 AM 31.7°F-0.2°C 25.6°F-3.6°C 78% 6.0 mph SSE9.7 kmh SSE -- 30.23 in1023.7 mb 0.00 in0.0 mm 0.00 in/hr0.0 mm/hr 0.00 in0.0 mm
01:50 AM 31.8°F-0.1°C 25.7°F-3.5°C 78% Calm Calm -- 30.22 in1023.4 mb 0.00 in0.0 mm 0.00 in/hr0.0 mm/hr 0.00 in0.0 mm
01:45 AM 31.8°F-0.1°C 25.7°F-3.5°C 78% 6.0 mph SE9.7 kmh SE -- 30.22 in1023.4 mb 0.00 in0.0 mm 0.00 in/hr0.0 mm/hr 0.00 in0.0 mm
01:40 AM 31.8°F-0.1°C 25.4°F-3.7°C 77% 6.0 mph E9.7 kmh E -- 30.22 in1023.4 mb 0.00 in0.0 mm 0.00 in/hr0.0 mm/hr 0.00 in0.0 mm
01:35 AM 32.0°F0.0°C 25.6°F-3.6°C 77% Calm Calm -- 30.20 in1022.7 mb 0.00 in0.0 mm 0.00 in/hr0.0 mm/hr 0.00 in0.0 mm
01:30 AM 32.1°F0.1°C 25.7°F-3.5°C 77% Calm Calm -- 30.19 in1022.4 mb 0.00 in0.0 mm 0.00 in/hr0.0 mm/hr 0.00 in0.0 mm
01:25 AM 32.5°F0.3°C 25.5°F-3.6°C 75% 6.0 mph NE9.7 kmh NE -- 30.20 in1022.7 mb 0.00 in0.0 mm 0.00 in/hr0.0 mm/hr 0.00 in0.0 mm
01:20 AM 32.8°F0.4°C 25.8°F-3.4°C 75% Calm Calm -- 30.19 in1022.4 mb 0.00 in0.0 mm 0.00 in/hr0.0 mm/hr 0.00 in0.0 mm
01:15 AM 33.0°F0.6°C 25.6°F-3.6°C 74% 2.0 mph NE3.2 kmh NE -- 30.18 in1022.0 mb 0.00 in0.0 mm 0.00 in/hr0.0 mm/hr 0.00 in0.0 mm
01:10 AM 33.4°F0.8°C 26.3°F-3.2°C 75% Calm Calm -- 30.19 in1022.4 mb 0.00 in0.0 mm 0.00 in/hr0.0 mm/hr 0.00 in0.0 mm
01:05 AM 33.7°F0.9°C 26.3°F-3.2°C 74% Calm Calm -- 30.19 in1022.4 mb 0.00 in0.0 mm 0.00 in/hr0.0 mm/hr 0.00 in0.0 mm
01:00 AM 33.8°F1.0°C 26.4°F-3.1°C 74% 1.0 mph NE1.6 kmh NE -- 30.19 in1022.4 mb 0.00 in0.0 mm 0.00 in/hr0.0 mm/hr 0.00 in0.0 mm
12:55 AM 34.1°F1.2°C 26.7°F-2.9°C 74% 4.0 mph N6.4 kmh N -- 30.18 in1022.0 mb 0.00 in0.0 mm 0.00 in/hr0.0 mm/hr 0.00 in0.0 mm
12:50 AM 34.3°F1.3°C 26.6°F-3.0°C 73% 4.0 mph N6.4 kmh N -- 30.19 in1022.4 mb 0.00 in0.0 mm 0.00 in/hr0.0 mm/hr 0.00 in0.0 mm
12:45 AM 34.6°F1.4°C 26.9°F-2.8°C 73% 1.0 mph N1.6 kmh N -- 30.19 in1022.4 mb 0.00 in0.0 mm 0.00 in/hr0.0 mm/hr 0.00 in0.0 mm
12:40 AM 34.7°F1.5°C 26.6°F-3.0°C 72% 4.0 mph N6.4 kmh N -- 30.18 in1022.0 mb 0.00 in0.0 mm 0.00 in/hr0.0 mm/hr 0.00 in0.0 mm
12:35 AM 35.0°F1.7°C 26.2°F-3.2°C 70% 5.0 mph NNW8.0 kmh NNW -- 30.19 in1022.4 mb 0.00 in0.0 mm 0.00 in/hr0.0 mm/hr 0.00 in0.0 mm
12:30 AM 35.2°F1.8°C 26.1°F-3.3°C 69% 8.0 mph NNW12.9 kmh NNW -- 30.18 in1022.0 mb 0.00 in0.0 mm 0.00 in/hr0.0 mm/hr 0.00 in0.0 mm
12:25 AM 35.4°F1.9°C 25.9°F-3.4°C 68% 4.0 mph N6.4 kmh N -- 30.18 in1022.0 mb 0.00 in0.0 mm 0.00 in/hr0.0 mm/hr 0.00 in0.0 mm
12:20 AM 35.6°F2.0°C 25.7°F-3.5°C 67% 1.0 mph NW1.6 kmh NW -- 30.18 in1022.0 mb 0.00 in0.0 mm 0.00 in/hr0.0 mm/hr 0.00 in0.0 mm
12:15 AM 35.8°F2.1°C 25.6°F-3.6°C 66% 1.0 mph NNW1.6 kmh NNW -- 30.17 in1021.7 mb 0.00 in0.0 mm 0.00 in/hr0.0 mm/hr 0.00 in0.0 mm
12:10 AM 36.0°F2.2°C 25.4°F-3.7°C 65% 4.0 mph NNW6.4 kmh NNW -- 30.17 in1021.7 mb 0.00 in0.0 mm 0.00 in/hr0.0 mm/hr 0.00 in0.0 mm
12:05 AM 36.2°F2.3°C 25.6°F-3.6°C 65% 16.0 mph NNW25.7 kmh NNW -- 30.16 in1021.3 mb 0.00 in0.0 mm 0.00 in/hr0.0 mm/hr 0.00 in0.0 mm
12:00 AM 36.4°F2.4°C 25.0°F-3.9°C 63% 6.0 mph WNW9.7 kmh WNW -- 30.16 in1021.3 mb 0.00 in0.0 mm 0.00 in/hr0.0 mm/hr 0.00 in0.0 mm